Time;durP1;ratioP1;P1;durP2;ratioP2;P2;SDS_P1;SDS_P2;PMS_P1;PMS_P2;Temp;Humidity;BMP_temperature;BMP_pressure;BME280_temperature;BME280_humidity;BME280_pressure;Samples;Min_cycle;Max_cycle;Signal;HPM_P1;HPM_P2
2023/09/12 00:08:29;;;;;;;39.70;28.70;;;;;;;17.04;71.60;98374.48;436235;1248;107753;-41
2023/09/12 00:28:41;;;;;;;32.40;25.30;;;;;;;16.78;72.57;98369.20;436148;1252;108096;-42
2023/09/12 00:38:49;;;;;;;32.40;27.00;;;;;;;16.74;73.16;98372.16;435911;1254;99259;-41
2023/09/12 00:48:56;;;;;;;35.10;25.10;;;;;;;16.65;73.26;98372.36;436180;1252;111915;-42
2023/09/12 00:59:05;;;;;;;36.50;26.10;;;;;;;16.62;73.62;98370.93;436137;1253;106736;-42
2023/09/12 01:19:20;;;;;;;37.40;27.90;;;;;;;16.64;74.03;98364.69;436351;1247;106946;-43
2023/09/12 01:29:30;;;;;;;33.40;26.50;;;;;;;16.66;73.96;98366.33;436325;1253;99317;-42
2023/09/12 01:39:37;;;;;;;34.50;24.10;;;;;;;16.61;73.85;98363.61;436999;1251;111115;-41
2023/09/12 01:49:43;;;;;;;33.20;26.00;;;;;;;16.46;74.14;98367.95;436238;1252;108284;-41
2023/09/12 01:59:52;;;;;;;34.60;24.20;;;;;;;16.34;74.13;98369.41;436205;1252;99257;-41
2023/09/12 02:10:00;;;;;;;35.20;24.50;;;;;;;16.36;74.25;98372.32;436245;1253;107672;-43
2023/09/12 02:20:06;;;;;;;;;;;;;;;16.24;74.38;98369.59;436272;1253;99204;-42
2023/09/12 02:30:11;;;;;;;37.40;29.50;;;;;;;16.28;74.84;98367.54;436344;1247;112377;-42
2023/09/12 02:40:19;;;;;;;33.10;25.40;;;;;;;16.14;74.34;98365.88;436160;1252;108294;-43
2023/09/12 02:50:26;;;;;;;33.70;26.10;;;;;;;15.91;74.63;98367.83;436465;1250;99215;-42
2023/09/12 03:00:33;;;;;;;38.60;25.40;;;;;;;15.77;75.07;98365.34;436285;1248;109062;-41
2023/09/12 03:10:40;;;;;;;34.90;25.70;;;;;;;15.69;75.47;98366.59;436277;1253;99231;-42
2023/09/12 03:20:45;;;;;;;37.90;28.50;;;;;;;15.63;75.77;98368.57;436357;1252;111861;-41
2023/09/12 03:30:52;;;;;;;34.50;25.90;;;;;;;15.53;75.92;98367.84;436490;1253;108172;-41
2023/09/12 03:40:59;;;;;;;36.80;28.50;;;;;;;15.46;76.15;98369.83;436409;1251;99240;-42
2023/09/12 03:51:06;;;;;;;33.90;28.30;;;;;;;15.40;76.52;98377.23;436376;1252;107991;-46
2023/09/12 04:01:13;;;;;;;36.70;26.90;;;;;;;15.37;76.64;98380.06;436311;1253;99237;-42
2023/09/12 04:11:19;;;;;;;36.20;26.80;;;;;;;15.30;76.80;98381.38;436243;1253;111755;-42
2023/09/12 04:21:45;;;;;;;37.80;28.10;;;;;;;15.28;77.00;98378.83;436176;1253;107942;-41
2023/09/12 04:31:58;;;;;;;39.90;28.30;;;;;;;15.25;77.15;98378.72;436269;1254;99252;-43
2023/09/12 04:42:06;;;;;;;40.80;26.30;;;;;;;15.40;77.41;98376.44;436312;1248;108292;-42
2023/09/12 04:52:12;;;;;;;33.90;28.00;;;;;;;15.49;77.70;98373.45;436845;1248;98036;-43
2023/09/12 05:02:19;;;;;;;31.60;24.30;;;;;;;15.73;77.91;98372.48;436284;1248;111288;-41
2023/09/12 05:12:25;;;;;;;37.70;24.50;;;;;;;16.02;77.76;98381.45;436052;1254;110540;-42
2023/09/12 05:32:36;;;;;;;39.70;30.10;;;;;;;17.20;78.06;98391.10;436296;1247;108409;-42
2023/09/12 05:42:43;;;;;;;50.10;23.60;;;;;;;18.28;77.70;98400.18;436189;1253;99224;-43
2023/09/12 05:52:50;;;;;;;43.30;26.80;;;;;;;19.35;76.56;98400.88;436285;1253;111206;-42
2023/09/12 06:02:57;;;;;;;46.60;26.70;;;;;;;20.22;75.67;98403.42;436311;1250;107335;-43
2023/09/12 06:13:04;;;;;;;36.70;22.90;;;;;;;21.18;74.46;98403.02;436335;1249;99277;-42
2023/09/12 06:23:11;;;;;;;33.30;21.10;;;;;;;22.04;73.03;98407.50;436314;1251;108774;-41
2023/09/12 06:33:18;;;;;;;25.30;18.60;;;;;;;22.90;71.88;98410.91;436354;1252;97992;-40
2023/09/12 06:43:25;;;;;;;;;;;;;;;23.96;70.47;98413.52;436331;1261;111786;-42
2023/09/12 06:53:32;;;;;;;20.10;15.90;;;;;;;24.94;68.94;98414.27;436472;1251;109117;-42
2023/09/12 07:03:37;;;;;;;29.60;17.90;;;;;;;25.82;67.12;98415.48;436264;1253;101499;-42
2023/09/12 07:13:43;;;;;;;28.10;17.50;;;;;;;26.32;65.60;98420.57;436405;1253;108207;-42
2023/09/12 07:23:50;;;;;;;26.90;17.90;;;;;;;26.96;64.45;98423.74;436401;1253;99237;-41
2023/09/12 07:33:57;;;;;;;30.10;16.90;;;;;;;27.04;63.11;98427.25;436354;1251;112916;-41
2023/09/12 07:54:10;;;;;;;23.70;14.50;;;;;;;26.32;61.37;98434.20;436449;1253;98829;-41
2023/09/12 08:24:29;;;;;;;21.10;12.00;;;;;;;27.97;59.19;98426.36;436459;1251;112533;-41
2023/09/12 08:34:36;;;;;;;21.90;12.00;;;;;;;28.37;58.00;98424.20;436657;1248;107861;-41
2023/09/12 08:44:40;;;;;;;18.90;12.40;;;;;;;28.39;56.33;98425.86;436167;1252;99304;-42
2023/09/12 08:54:48;;;;;;;16.20;12.80;;;;;;;28.42;55.25;98424.48;436442;1253;107970;-43
2023/09/12 09:04:52;;;;;;;16.10;11.30;;;;;;;28.65;54.29;98423.23;436640;1253;99304;-43
2023/09/12 09:15:00;;;;;;;13.40;12.00;;;;;;;28.78;53.17;98422.59;436651;1251;111742;-42
2023/09/12 09:25:13;;;;;;;24.50;12.00;;;;;;;29.05;52.41;98421.32;437008;1253;107927;-42
2023/09/12 09:35:18;;;;;;;25.80;11.10;;;;;;;28.98;50.21;98416.67;436761;1248;99218;-42
2023/09/12 09:45:24;;;;;;;34.80;12.90;;;;;;;29.19;50.46;98407.63;436813;1252;108601;-43
2023/09/12 10:05:40;;;;;;;15.90;12.10;;;;;;;29.26;48.59;98400.08;436524;1261;112309;-41
2023/09/12 10:15:47;;;;;;;14.90;10.60;;;;;;;29.47;48.12;98400.17;436490;1253;108327;-41
2023/09/12 10:25:56;;;;;;;13.20;10.40;;;;;;;29.60;47.37;98402.09;436440;1252;98260;-42
2023/09/12 10:36:03;;;;;;;13.90;10.10;;;;;;;29.32;46.60;98396.14;436783;1252;108320;-40
2023/09/12 10:46:11;;;;;;;12.10;10.60;;;;;;;29.38;45.85;98396.04;436653;1253;99574;-42
2023/09/12 10:56:16;;;;;;;13.30;11.00;;;;;;;29.70;46.18;98397.59;436557;1253;111839;-42
2023/09/12 11:26:35;;;;;;;19.80;10.20;;;;;;;29.72;44.59;98388.59;436458;1249;107586;-41
2023/09/12 11:36:41;;;;;;;12.60;11.30;;;;;;;29.68;43.74;98381.61;436386;1253;98002;-40
2023/09/12 11:46:48;;;;;;;20.90;11.20;;;;;;;29.60;43.89;98379.83;436390;1254;110764;-42
2023/09/12 12:27:15;;;;;;;109.80;18.00;;;;;;;29.22;43.51;98380.23;436373;1254;99253;-41
2023/09/12 12:37:22;;;;;;;13.90;12.10;;;;;;;28.89;44.16;98370.38;435977;1248;403529;-41
2023/09/12 12:47:31;;;;;;;14.60;13.00;;;;;;;29.04;44.01;98357.39;436217;1248;107062;-42
2023/09/12 13:17:47;;;;;;;12.80;11.50;;;;;;;29.47;42.94;98348.83;436130;1253;97991;-42
2023/09/12 13:27:52;;;;;;;12.60;11.30;;;;;;;29.43;42.75;98346.94;437934;1253;111315;-41
2023/09/12 13:37:57;;;;;;;21.80;12.10;;;;;;;29.14;42.67;98349.35;438338;1252;108323;-40
2023/09/12 13:58:15;;;;;;;23.00;12.00;;;;;;;28.41;43.14;98351.95;438655;1261;107484;-42
2023/09/12 14:08:23;;;;;;;14.90;13.30;;;;;;;28.32;43.66;98345.45;437868;1254;99205;-40
2023/09/12 14:18:30;;;;;;;20.30;13.80;;;;;;;28.29;44.05;98345.40;436673;1254;111738;-42
2023/09/12 14:38:41;;;;;;;;;;;;;;;28.20;44.01;98352.62;436257;1254;99227;-42
2023/09/12 14:48:48;;;;;;;15.90;13.80;;;;;;;28.06;44.35;98355.14;436201;1248;108420;-41
2023/09/12 14:59:06;;;;;;;17.80;12.30;;;;;;;27.90;44.34;98357.48;436292;1253;99320;-40
2023/09/12 15:09:13;;;;;;;14.80;13.10;;;;;;;27.82;44.82;98356.56;437328;1254;111578;-40
2023/09/12 15:19:20;;;;;;;15.40;13.20;;;;;;;27.68;44.79;98359.71;437024;1248;108701;-41
2023/09/12 15:29:27;;;;;;;16.50;12.00;;;;;;;27.42;45.17;98353.71;438759;1258;99218;-41
2023/09/12 15:39:33;;;;;;;18.60;12.00;;;;;;;27.07;45.77;98344.98;436701;1254;108478;-40
2023/09/12 15:49:40;;;;;;;63.60;15.10;;;;;;;26.79;46.40;98345.64;436163;1248;99323;-41
2023/09/12 15:59:48;;;;;;;25.40;11.70;;;;;;;26.70;46.55;98342.86;436349;1253;110738;-41
2023/09/12 16:09:55;;;;;;;44.30;12.60;;;;;;;26.66;46.72;98337.66;436500;1248;108423;-41
2023/09/12 16:20:03;;;;;;;16.00;11.70;;;;;;;26.50;46.94;98341.15;436291;1248;97979;-41
2023/09/12 16:40:17;;;;;;;13.20;11.10;;;;;;;25.92;47.76;98339.52;437940;1248;97998;-39
2023/09/12 16:50:26;;;;;;;31.10;13.70;;;;;;;25.39;48.72;98336.69;437633;1255;110394;-41
2023/09/12 17:00:34;;;;;;;29.60;13.90;;;;;;;24.79;49.98;98336.75;438117;1254;108365;-41
2023/09/12 17:20:46;;;;;;;20.50;14.00;;;;;;;23.54;51.95;98341.33;436573;1251;107655;-42
2023/09/12 17:30:53;;;;;;;24.40;15.20;;;;;;;23.05;52.85;98347.73;437670;1248;98810;-41
2023/09/12 17:40:59;;;;;;;;;;;;;;;22.59;53.71;98344.19;437760;1253;112025;-41
2023/09/12 17:51:05;;;;;;;25.50;17.20;;;;;;;22.13;54.49;98347.97;436309;1254;108039;-42
2023/09/12 18:01:12;;;;;;;26.50;16.60;;;;;;;21.89;55.26;98349.27;437617;1248;99230;-42
2023/09/12 18:11:19;;;;;;;29.00;19.60;;;;;;;21.71;56.10;98360.55;438124;1248;108000;-42
2023/09/12 18:21:41;;;;;;;34.00;24.10;;;;;;;21.53;57.02;98363.21;437903;1253;98397;-41
2023/09/12 18:31:49;;;;;;;30.00;23.70;;;;;;;21.42;57.68;98373.08;437506;1252;112325;-41
2023/09/12 18:41:54;;;;;;;39.60;28.90;;;;;;;21.28;58.32;98370.20;438265;1248;107761;-41
2023/09/12 18:52:00;;;;;;;52.70;32.90;;;;;;;21.23;59.19;98366.79;437744;1253;99255;-40
2023/09/12 19:02:08;;;;;;;51.20;32.90;;;;;;;21.17;59.67;98370.02;438422;1254;109423;-40
2023/09/12 19:12:13;;;;;;;43.60;30.90;;;;;;;21.11;60.30;98372.29;437506;1247;99227;-40
2023/09/12 19:22:21;;;;;;;42.50;31.70;;;;;;;21.07;61.03;98375.33;436199;1248;111290;-42
2023/09/12 19:32:29;;;;;;;54.60;36.60;;;;;;;20.88;61.62;98368.84;436374;1247;110400;-40
2023/09/12 19:42:34;;;;;;;42.10;32.10;;;;;;;20.80;62.15;98364.84;436232;1253;97997;-42
2023/09/12 20:02:48;;;;;;;41.30;33.30;;;;;;;20.74;63.31;98363.81;436251;1251;99167;-41
2023/09/12 20:12:56;;;;;;;40.30;32.80;;;;;;;20.55;63.76;98364.55;436226;1248;111483;-41
2023/09/12 20:23:04;;;;;;;46.90;31.80;;;;;;;20.34;64.13;98370.21;435962;1252;108633;-43
2023/09/12 20:33:11;;;;;;;39.50;31.30;;;;;;;20.07;64.62;98369.02;436255;1251;99227;-41
2023/09/12 20:43:18;;;;;;;42.50;31.40;;;;;;;19.98;65.64;98360.50;436319;1253;107838;-40
2023/09/12 20:53:26;;;;;;;49.70;37.70;;;;;;;19.86;66.09;98358.64;436224;1253;101545;-41
2023/09/12 21:03:33;;;;;;;38.90;32.40;;;;;;;19.75;66.63;98365.86;436288;1261;112989;-40
2023/09/12 21:13:40;;;;;;;43.00;32.20;;;;;;;19.68;67.25;98369.64;436257;1250;108847;-41
2023/09/12 21:23:48;;;;;;;47.10;34.00;;;;;;;19.68;67.41;98370.70;436404;1248;98428;-41
2023/09/12 21:33:55;;;;;;;42.70;30.50;;;;;;;19.62;67.67;98375.73;436339;1253;108191;-41
2023/09/12 21:44:02;;;;;;;35.80;28.10;;;;;;;19.54;67.83;98379.73;436352;1250;99346;-41
2023/09/12 22:14:21;;;;;;;43.00;29.80;;;;;;;19.26;68.47;98376.56;436223;1252;99237;-41
2023/09/12 22:24:28;;;;;;;39.00;29.10;;;;;;;19.21;68.61;98383.84;436401;1250;107682;-40
2023/09/12 22:34:36;;;;;;;35.60;30.20;;;;;;;19.15;68.99;98375.34;436259;1251;99233;-41
2023/09/12 22:44:42;;;;;;;43.00;31.90;;;;;;;19.10;69.21;98379.44;436313;1253;111881;-41
2023/09/12 22:54:49;;;;;;;39.80;30.30;;;;;;;19.00;69.67;98380.02;436305;1252;107642;-42
2023/09/12 23:04:54;;;;;;;34.90;27.50;;;;;;;18.91;69.88;98377.25;436313;1252;99301;-40
2023/09/12 23:15:01;;;;;;;37.10;28.00;;;;;;;18.80;70.60;98370.17;436348;1253;108022;-43
2023/09/12 23:35:11;;;;;;;40.20;30.50;;;;;;;18.60;71.41;98343.33;436251;1247;111286;-42
2023/09/12 23:45:17;;;;;;;30.80;25.30;;;;;;;18.59;71.41;98333.31;436269;1251;105955;-43
2023/09/12 23:55:25;;;;;;;29.70;23.40;;;;;;;18.71;71.31;98331.46;436201;1248;99191;-44
